• Join FlightAware (Why Join?)
  • Login
  • US Flag 
09:05PM EDT


 

Airport Tracker/Info


-or-


 

Live Flight TrackerFlight Track Log ✈ SWA3121 ✈ 29-Apr-2013 ✈ KMCO - KHOU

Flight Track Log - Related Links

Times and Time Zones

All times are in EDT time to prevent confusion due to time zone crossing. See the SWA3121 flight status page for this flight to view local times or setup timezone preferences in your user account.

Time Position Orientation Groundspeed Altitude Reporting Facility
EDT Latitude Longitude Course Direction KTS MPH feet Rate Location/Type
09:58PM 28.4167 -81.3167 254° West 161 185 1,200  Level Orlando TRACON
09:59PM 28.4000 -81.3833 254° West 222 255 3,700 2,940 Climbing Orlando TRACON
10:00PM 28.4167 -81.4500 286° West 273 314 6,800 3,540 Climbing Orlando TRACON
10:00PM 28.4500 -81.5000 307° West 283 326 9,500 2,880 Climbing Orlando TRACON
10:03PM 28.5178 -81.6947 292° West 306 352 15,200 2,580 Climbing Jacksonville Center
10:04PM 28.4897 -81.8131 255° West 334 384 17,800 2,400 Climbing Jacksonville Center
10:05PM 28.4572 -81.9317 253° West 368 423 20,000 1,980 Climbing Jacksonville Center
10:06PM 28.4308 -82.0286 253° West 388 447 21,800 2,220 Climbing Jacksonville Center
10:07PM 28.4003 -82.1681 256° West 409 471 24,500 2,520 Climbing Jacksonville Center
10:08PM 28.3803 -82.2981 260° West 420 483 26,900 2,460 Climbing Jacksonville Center
10:09PM 28.3619 -82.4256 261° West 420 483 29,500 2,340 Climbing Jacksonville Center
10:10PM 28.3436 -82.5458 260° West 408 470 31,600 1,860 Climbing Jacksonville Center
10:12PM 28.2925 -82.8467 259° West 394 453 36,000 1,680 Climbing Miami Center
10:13PM 28.2731 -82.9658 260° West 388 447 37,500 960 Climbing Miami Center
10:14PM 28.2553 -83.0825 260° West 388 447 38,000 240 Climbing Miami Center
10:15PM 28.2378 -83.1969 260° West 388 447 38,000  Level Miami Center
10:16PM 28.2181 -83.3136 259° West 388 447 38,000  Level Miami Center
10:18PM 28.2236 -83.5286 272° West 388 447 38,000  Level Jacksonville Center
10:19PM 28.2397 -83.6347 280° West 387 445 38,000  Level Jacksonville Center
10:20PM 28.2597 -83.7550 281° West 392 451 38,000  Level Jacksonville Center
10:21PM 28.2797 -83.8731 281° West 392 451 38,000  Level Jacksonville Center
10:22PM 28.2997 -83.9936 281° West 392 451 38,000  Level Jacksonville Center
10:23PM 28.3194 -84.1092 281° West 385 443 38,000  Level Jacksonville Center
10:24PM 28.3372 -84.2203 280° West 378 435 38,000  Level Jacksonville Center
10:25PM 28.3567 -84.3386 281° West 373 429 38,000  Level Jacksonville Center
10:26PM 28.3764 -84.4519 281° West 373 429 38,000  Level Jacksonville Center
10:27PM 28.3956 -84.5822 280° West 378 435 38,000  Level Jacksonville Center
10:28PM 28.4275 -84.6911 288° West 378 435 38,000  Level Jacksonville Center
10:29PM 28.4697 -84.7958 295° West 370 426 38,000  Level Jacksonville Center
10:30PM 28.5119 -84.9053 294° West 370 426 38,000  Level Jacksonville Center
10:31PM 28.5497 -85.0172 291° West 376 433 38,000  Level Jacksonville Center
10:32PM 28.5833 -85.1242 290° West 376 433 38,000  Level Jacksonville Center
10:33PM 28.6189 -85.2361 290° West 371 427 38,000  Level Jacksonville Center
10:34PM 28.6544 -85.3483 290° West 371 427 38,000  Level Jacksonville Center
10:35PM 28.6836 -85.4625 286° West 376 433 38,000  Level Jacksonville Center
10:36PM 28.6956 -85.5836 276° West 376 433 38,000  Level Jacksonville Center
10:37PM 28.7097 -85.7022 278° West 376 433 38,000  Level Jacksonville Center
10:38PM 28.7239 -85.8139 278° West 371 427 38,000  Level Jacksonville Center
10:39PM 28.7381 -85.9256 278° West 371 427 38,000  Level Jacksonville Center
10:40PM 28.7519 -86.0419 278° West 366 421 38,000  Level Jacksonville Center
10:41PM 28.7658 -86.1539 278° West 371 427 38,000  Level Jacksonville Center
10:42PM 28.7797 -86.2656 278° West 366 421 38,000  Level Jacksonville Center
10:43PM 28.7911 -86.3844 276° West 371 427 38,000  Level Jacksonville Center
10:44PM 28.8067 -86.5008 279° West 371 427 38,000  Level Jacksonville Center
10:45PM 28.8219 -86.6225 278° West 377 434 38,000  Level Jacksonville Center
10:46PM 28.8353 -86.7389 277° West 377 434 38,000  Level Jacksonville Center
10:47PM 28.8483 -86.8556 277° West 382 440 38,000  Level Jacksonville Center
10:48PM 28.8633 -86.9769 278° West 382 440 38,000  Level Jacksonville Center
10:49PM 28.8761 -87.0961 277° West 382 440 38,000  Level Jacksonville Center
10:50PM 28.8892 -87.2106 277° West 382 440 38,000  Level Jacksonville Center
10:51PM 28.9017 -87.3294 277° West 382 440 38,000  Level Jacksonville Center
10:52PM 28.9150 -87.4639 276° West 374 430 38,000  Level Houston Center
10:53PM 28.9283 -87.5819 277° West 375 432 38,000  Level Houston Center
10:54PM 28.9403 -87.7000 277° West 376 433 38,000  Level Houston Center
10:55PM 28.9531 -87.8172 277° West 373 429 38,000  Level Houston Center
10:56PM 28.9658 -87.9356 277° West 376 433 38,000  Level Houston Center
10:57PM 28.9781 -88.0528 277° West 372 428 38,000  Level Houston Center
10:58PM 28.9883 -88.1631 276° West 376 433 38,000  Level Houston Center
10:59PM 29.0014 -88.2806 277° West 375 432 38,000  Level Houston Center
11:00PM 29.0117 -88.3992 276° West 377 434 38,000  Level Houston Center
11:01PM 29.0206 -88.5419 274° West 379 436 38,000  Level Houston Center
11:02PM 29.0292 -88.6592 275° West 374 430 38,000  Level Houston Center
11:03PM 29.0381 -88.7783 275° West 376 433 38,000  Level Houston Center
11:04PM 29.0458 -88.8981 274° West 377 434 38,000  Level Houston Center
11:05PM 29.0539 -89.0167 274° West 376 433 38,000  Level Houston Center
11:06PM 29.0619 -89.1367 274° West 379 436 38,000  Level Houston Center
11:07PM 29.0700 -89.2581 274° West 382 440 38,000  Level Houston Center
11:08PM 29.0783 -89.3772 275° West 378 435 38,000  Level Houston Center
11:09PM 29.0858 -89.4975 274° West 379 436 38,000  Level Houston Center
11:10PM 29.0933 -89.6186 274° West 381 438 38,000  Level Houston Center
11:11PM 29.1011 -89.7386 274° West 378 435 38,000  Level Houston Center
11:12PM 29.1083 -89.8583 274° West 378 435 38,000  Level Houston Center
11:13PM 29.1147 -89.9772 274° West 376 433 38,000  Level Houston Center
11:14PM 29.1228 -90.0964 274° West 376 433 38,000  Level Houston Center
11:15PM 29.1294 -90.2147 274° West 374 430 38,000  Level Houston Center
11:16PM 29.1350 -90.3347 273° West 376 433 38,000  Level Houston Center
11:17PM 29.1442 -90.4569 275° West 383 441 38,000  Level Houston Center
11:18PM 29.1603 -90.6022 277° West 384 442 38,000  Level Houston Center
11:19PM 29.1744 -90.7242 278° West 385 443 38,000  Level Houston Center
11:20PM 29.1886 -90.8458 278° West 386 444 38,000  Level Houston Center
11:21PM 29.2022 -90.9694 277° West 389 448 38,000  Level Houston Center
11:22PM 29.2158 -91.0914 277° West 388 447 38,000  Level Houston Center
11:23PM 29.2283 -91.2111 277° West 383 441 38,000  Level Houston Center
11:24PM 29.2414 -91.3306 277° West 380 437 38,000  Level Houston Center
11:25PM 29.2550 -91.4500 277° West 379 436 38,000  Level Houston Center
11:26PM 29.2681 -91.5703 277° West 382 440 38,000 -60 Level Houston Center
11:27PM 29.2803 -91.6897 277° West 382 440 37,900  Descending Houston Center
11:28PM 29.2925 -91.8097 277° West 384 442 38,000  Climbing Houston Center
11:29PM 29.3053 -91.9333 277° West 391 450 38,000  Level Houston Center
11:30PM 29.3175 -92.0572 276° West 391 450 38,000  Level Houston Center
11:31PM 29.3314 -92.1806 277° West 392 451 38,000  Level Houston Center
11:32PM 29.3431 -92.3050 276° West 392 451 38,000  Level Houston Center
11:33PM 29.3558 -92.4297 277° West 394 453 38,000  Level Houston Center
11:35PM 29.3683 -92.5533 277° West 391 450 38,000  Level Houston Center
11:36PM 29.3828 -92.7008 276° West 388 447 38,000  Level Houston Center
11:37PM 29.3944 -92.8239 276° West 387 445 38,000  Level Houston Center
11:38PM 29.4061 -92.9469 276° West 388 447 38,000  Level Houston Center
11:39PM 29.4183 -93.0694 277° West 388 447 38,000  Level Houston Center
11:40PM 29.4300 -93.1919 276° West 387 445 38,000  Level Houston Center
11:41PM 29.4414 -93.3114 276° West 380 437 38,000 -840 Level Houston Center
11:42PM 29.4528 -93.4292 276° West 373 429 36,400 -2,340 Descending Houston Center
11:43PM 29.4628 -93.5511 275° West 381 438 33,300 -3,180 Descending Houston Center
11:44PM 29.4744 -93.6797 276° West 399 459 30,000 -3,300 Descending Houston Center
11:45PM 29.4861 -93.8142 276° West 418 481 26,700 -3,120 Descending Houston Center
11:46PM 29.4983 -93.9494 276° West 424 488 23,800 -2,820 Descending Houston Center
11:46PM 29.5075 -94.0578 276° West 422 486 21,700 -2,700 Descending Houston Center
11:47PM 29.5097 -94.0825 276° West 420 483 21,100 -3,240 Descending Houston Center
11:47PM 29.5158 -94.1600 275° West 411 473 19,400 -3,000 Descending Houston Center
11:48PM 29.5219 -94.2142 277° West 413 475 18,100 -2,880 Descending Houston Center
11:48PM 29.5286 -94.2881 276° West 407 468 16,500 -2,820 Descending Houston Center
11:49PM 29.5278 -94.3397 269° West 400 460 15,300 -2,940 Descending Houston Center
11:49PM 29.5228 -94.3994 265° West 381 438 13,900 -2,880 Descending Houston Center
11:50PM 29.5192 -94.4600 266° West 385 443 12,400 -2,760 Descending Houston Center
11:50PM 29.5153 -94.5567 267° West 370 426 10,300 -2,340 Descending Houston Center
11:51PM 29.5136 -94.5769 265° West 372 428 10,100 -240 Descending Houston Center
11:51PM 29.5078 -94.6731 266° West 367 422 10,100  Level Houston Center
11:52PM 29.5086 -94.6944 273° West 368 423 10,100 -180 Level Houston Center
11:52PM 29.5039 -94.7647 266° West 370 426 10,000 -240 Descending Houston Center
11:53PM 29.5025 -94.8092 268° West 365 420 9,900 -240 Descending Houston Center
11:53PM 29.4989 -94.8639 266° West 295 339 9,800 -900 Descending Houston Center
11:54PM 29.4969 -94.9006 267° West 314 361 9,000 -1,740 Descending Houston Center
11:54PM 29.4953 -94.9603 268° West 274 315 8,100 -1,620 Descending Houston Center
11:55PM 29.4928 -94.9914 265° West 289 333 7,400 -1,620 Descending Houston Center
11:55PM 29.4892 -95.0500 266° West 281 323 6,500 -1,200 Descending Houston Center
11:56PM 29.4878 -95.0808 267° West 281 323 6,200 -420 Descending Houston Center
11:56PM 29.4853 -95.1439 267° West 250 288 6,000 -240 Descending Houston Center
11:57PM 29.4831 -95.1606 261° West 254 292 6,000 60 Level Houston Center
11:57PM 29.4819 -95.2189 269° West 230 265 6,100  Climbing Houston Center
11:58PM 29.4794 -95.2339 259° West 232 267 6,000 -900 Descending Houston Center
11:58PM 29.4800 -95.2886 271° West 202 232 5,200 -1,140 Descending Houston Center
11:59PM 29.4797 -95.2989 268° West 207 238 4,900 -1,200 Descending Houston Center
11:59PM 29.4797 -95.3536 270° West 205 236 4,000 -1,320 Descending Houston Center
12:00AM 29.4806 -95.3644 275° West 204 235 3,600 -1,260 Descending Houston Center
12:00AM 29.5003 -95.3942 307° West 216 249 3,100 -1,140 Descending Houston Center
12:01AM 29.5267 -95.3917 North 210 242 2,500 -1,020 Descending Houston Center
12:01AM 29.5536 -95.3806 20° North 196 226 2,100 -840 Descending Houston Center
12:02AM 29.5719 -95.3597 45° Northeast 196 226 1,700 -720 Descending Houston Center
12:02AM 29.5878 -95.3428 43° Northeast 174 200 1,500 -840 Descending Houston Center
12:03AM 29.6058 -95.3222 45° Northeast 174 200 900 -840 Descending Houston Center
12:03AM 29.6242 -95.3025 43° Northeast 142 163 500 -720 Descending Houston Center
12:04AM 29.6342 -95.2911 45° Northeast 148 170 200 -600 Descending Houston Center